createdAt,value
2022-10-17T00:01:04.980Z,99027.88
2022-10-17T00:03:37.913Z,99031.84
2022-10-17T00:06:11.192Z,99035.03
2022-10-17T00:08:40.961Z,99031.81
2022-10-17T00:11:22.918Z,99033.03
2022-10-17T00:13:54.361Z,99032.59
2022-10-17T00:16:39.902Z,99034.59
2022-10-17T00:19:08.072Z,99031.41
2022-10-17T00:21:35.386Z,99039.78
2022-10-17T00:24:03.009Z,99033.03
2022-10-17T00:26:30.287Z,99040.13
2022-10-17T00:28:58.096Z,99033.75
2022-10-17T00:31:25.871Z,99046.41
2022-10-17T00:33:53.762Z,99047.22
2022-10-17T00:36:26.661Z,99042.03
2022-10-17T00:38:59.755Z,99042.00
2022-10-17T00:41:33.980Z,99049.25
2022-10-17T00:44:31.479Z,99051.59
2022-10-17T00:47:08.891Z,99051.66
2022-10-17T00:49:38.573Z,99050.78
2022-10-17T00:52:22.264Z,99047.28
2022-10-17T00:55:08.959Z,99053.97
2022-10-17T00:57:36.743Z,99048.81
2022-10-17T01:00:11.165Z,99050.06
2022-10-17T01:02:39.445Z,99051.97
2022-10-17T01:05:08.990Z,99046.03
2022-10-17T01:07:37.960Z,99059.16
2022-10-17T01:10:07.992Z,99053.22
2022-10-17T01:13:14.063Z,99050.75
2022-10-17T01:16:36.114Z,99031.22
2022-10-17T01:19:54.784Z,99045.41
2022-10-17T01:23:23.837Z,99049.91
2022-10-17T01:26:52.685Z,99051.44
2022-10-17T01:30:19.557Z,99054.31
2022-10-17T01:33:08.600Z,99041.84
2022-10-17T01:36:16.685Z,99039.53
2022-10-17T01:39:04.500Z,99044.25
2022-10-17T01:42:14.034Z,99048.34
2022-10-17T01:45:17.269Z,99041.59
2022-10-17T01:47:46.778Z,99041.53
2022-10-17T01:50:37.896Z,99037.22
2022-10-17T01:53:33.905Z,99048.28
2022-10-17T01:56:07.405Z,99054.75
2022-10-17T01:58:47.426Z,99057.03
2022-10-17T02:01:16.464Z,99060.25
2022-10-17T02:03:46.002Z,99052.34
2022-10-17T02:06:13.269Z,99053.47
2022-10-17T02:08:50.597Z,99049.88
2022-10-17T02:11:27.113Z,99044.28
2022-10-17T02:14:40.875Z,99055.38
2022-10-17T02:17:47.010Z,99057.34
2022-10-17T02:20:36.344Z,99049.66
2022-10-17T02:23:38.395Z,99044.53
2022-10-17T02:26:48.763Z,99049.75
2022-10-17T02:29:26.909Z,99050.50
2022-10-17T02:32:12.587Z,99058.47
2022-10-17T02:34:48.225Z,99056.06
2022-10-17T02:37:22.148Z,99062.41
2022-10-17T02:39:51.848Z,99061.06
2022-10-17T02:42:20.732Z,99063.91
2022-10-17T02:44:48.977Z,99063.16
2022-10-17T02:47:41.770Z,99068.56
2022-10-17T02:50:09.913Z,99069.19
2022-10-17T02:52:56.278Z,99070.66
2022-10-17T02:55:36.398Z,99067.88
2022-10-17T02:58:14.873Z,99066.81
2022-10-17T03:00:43.188Z,99068.88
2022-10-17T03:03:32.295Z,99071.09
2022-10-17T03:06:00.416Z,99070.63
2022-10-17T03:08:27.915Z,99071.31
2022-10-17T03:10:55.224Z,99073.28
2022-10-17T03:13:22.485Z,99063.75
2022-10-17T03:15:49.759Z,99078.09
2022-10-17T03:18:17.070Z,99070.84
2022-10-17T03:20:44.339Z,99074.84
2022-10-17T03:23:11.627Z,99077.22
2022-10-17T03:25:39.731Z,99077.28
2022-10-17T03:28:07.875Z,99086.41
2022-10-17T03:30:35.140Z,99090.03
2022-10-17T03:33:02.455Z,99087.25
2022-10-17T03:35:29.726Z,99091.31
2022-10-17T03:37:57.602Z,99092.84
2022-10-17T03:40:24.959Z,99089.84
2022-10-17T03:42:52.253Z,99089.06
2022-10-17T03:45:19.531Z,99088.59
2022-10-17T03:47:46.810Z,99094.56
2022-10-17T03:50:14.122Z,99105.94
2022-10-17T03:52:41.490Z,99091.81
2022-10-17T03:55:09.019Z,99105.19
2022-10-17T03:57:37.058Z,99103.25
2022-10-17T04:00:06.692Z,99107.63
2022-10-17T04:02:35.236Z,99103.25
2022-10-17T04:05:02.731Z,99101.28
2022-10-17T04:07:30.017Z,99107.22
2022-10-17T04:09:57.299Z,99103.59
2022-10-17T04:12:24.568Z,99109.50
2022-10-17T04:14:51.833Z,99115.56
2022-10-17T04:17:19.185Z,99113.16
2022-10-17T04:19:47.320Z,99117.06
2022-10-17T04:22:14.569Z,99126.34
2022-10-17T04:24:41.824Z,99118.41
2022-10-17T04:27:09.885Z,99124.38
2022-10-17T04:29:37.128Z,99112.34
2022-10-17T04:32:04.752Z,99111.91
2022-10-17T04:34:32.017Z,99128.25
2022-10-17T04:36:59.291Z,99130.84
2022-10-17T04:39:26.655Z,99129.81
2022-10-17T04:41:53.944Z,99131.47
2022-10-17T04:44:21.204Z,99131.69
2022-10-17T04:46:48.680Z,99131.75
2022-10-17T04:49:16.031Z,99126.59
2022-10-17T04:51:43.281Z,99134.97
2022-10-17T04:54:12.356Z,99137.94
2022-10-17T04:56:39.620Z,99141.97
2022-10-17T04:59:06.892Z,99136.75
2022-10-17T05:01:34.160Z,99139.53
2022-10-17T05:04:01.460Z,99142.03
2022-10-17T05:06:28.789Z,99141.91
2022-10-17T05:08:57.628Z,99147.47
2022-10-17T05:11:29.991Z,99145.06
2022-10-17T05:14:02.644Z,99141.00
2022-10-17T05:16:30.894Z,99139.38
2022-10-17T05:19:00.002Z,99139.56
2022-10-17T05:21:30.272Z,99140.72
2022-10-17T05:23:59.233Z,99147.50
2022-10-17T05:26:27.121Z,99156.03
2022-10-17T05:28:54.787Z,99151.31
2022-10-17T05:31:22.213Z,99160.84
2022-10-17T05:33:49.482Z,99169.16
2022-10-17T05:36:16.820Z,99169.50
2022-10-17T05:38:44.083Z,99171.53
2022-10-17T05:41:11.386Z,99177.16
2022-10-17T05:43:39.490Z,99165.63
2022-10-17T05:46:07.345Z,99171.91
2022-10-17T05:48:35.398Z,99169.28
2022-10-17T05:51:09.583Z,99164.63
2022-10-17T05:53:41.472Z,99177.56
2022-10-17T05:56:13.381Z,99184.50
2022-10-17T05:58:50.203Z,99187.59
2022-10-17T06:01:20.007Z,99170.34
2022-10-17T06:03:47.411Z,99191.38
2022-10-17T06:06:16.501Z,99185.53
2022-10-17T06:08:45.813Z,99187.28
2022-10-17T06:11:13.775Z,99188.47
2022-10-17T06:13:42.329Z,99188.97
2022-10-17T06:16:10.065Z,99189.16
2022-10-17T06:18:37.485Z,99193.09
2022-10-17T06:21:12.154Z,99199.75
2022-10-17T06:23:39.431Z,99202.88
2022-10-17T06:26:07.700Z,99205.97
2022-10-17T06:28:37.093Z,99204.59
2022-10-17T06:31:13.683Z,99213.31
2022-10-17T06:33:41.166Z,99217.72
2022-10-17T06:36:14.155Z,99207.22
2022-10-17T06:38:41.733Z,99225.06
2022-10-17T06:41:18.552Z,99216.97
2022-10-17T06:43:47.842Z,99225.31
2022-10-17T06:46:19.204Z,99229.72
2022-10-17T06:48:46.728Z,99223.97
2022-10-17T06:51:14.120Z,99224.59
2022-10-17T06:53:41.414Z,99233.22
2022-10-17T06:56:10.755Z,99234.13
2022-10-17T06:58:41.578Z,99239.34
2022-10-17T07:01:13.632Z,99237.34
2022-10-17T07:03:41.672Z,99248.94
2022-10-17T07:06:11.313Z,99245.41
2022-10-17T07:08:43.544Z,99252.84
2022-10-17T07:11:20.943Z,99268.00
2022-10-17T07:13:49.041Z,99259.47
2022-10-17T07:16:35.420Z,99255.31
2022-10-17T07:19:14.521Z,99263.22
2022-10-17T07:22:28.295Z,99261.44
2022-10-17T07:28:14.853Z,99256.28
2022-10-17T07:31:26.075Z,99267.06
2022-10-17T07:34:26.559Z,99276.22
2022-10-17T07:37:07.077Z,99263.94
2022-10-17T07:39:59.711Z,99284.38
2022-10-17T07:42:43.313Z,99284.41
2022-10-17T07:45:23.177Z,99287.63
2022-10-17T07:48:03.841Z,99292.91
2022-10-17T07:50:46.560Z,99288.13
2022-10-17T07:53:22.558Z,99297.81
2022-10-17T07:55:56.496Z,99301.03
2022-10-17T07:58:39.551Z,99309.28
2022-10-17T08:01:26.294Z,99313.44
2022-10-17T08:04:10.037Z,99314.34
2022-10-17T08:07:00.634Z,99313.00
2022-10-17T08:09:57.443Z,99314.03
2022-10-17T08:12:37.715Z,99318.47
2022-10-17T08:15:31.900Z,99316.94
2022-10-17T08:18:14.232Z,99323.19
2022-10-17T08:20:55.634Z,99320.97
2022-10-17T08:23:53.756Z,99325.84
2022-10-17T08:26:49.589Z,99290.75
2022-10-17T08:29:41.550Z,99322.75
2022-10-17T08:32:28.859Z,99328.00
2022-10-17T08:35:17.714Z,99333.16
2022-10-17T08:38:35.101Z,99335.66
2022-10-17T08:42:08.647Z,99342.88
2022-10-17T08:45:38.393Z,99342.91
2022-10-17T08:48:27.065Z,99341.34
2022-10-17T08:51:43.025Z,99347.72
2022-10-17T08:54:45.811Z,99346.97
2022-10-17T08:57:28.639Z,99341.38
2022-10-17T09:00:23.219Z,99335.78
2022-10-17T09:03:33.787Z,99342.97
2022-10-17T09:06:52.575Z,99335.38
2022-10-17T09:10:15.293Z,99336.88
2022-10-17T09:13:55.980Z,99328.13
2022-10-17T09:17:23.541Z,99328.03
2022-10-17T09:20:46.287Z,99331.09
2022-10-17T09:23:40.429Z,99337.75
2022-10-17T09:26:25.739Z,99339.69
2022-10-17T09:29:35.350Z,99342.06
2022-10-17T09:35:20.637Z,99348.16
2022-10-17T09:38:01.786Z,99347.81
2022-10-17T09:40:46.101Z,99348.91
2022-10-17T09:43:37.743Z,99348.38
2022-10-17T09:46:43.217Z,99348.88
2022-10-17T09:49:33.134Z,99349.97
2022-10-17T09:52:49.541Z,99355.44
2022-10-17T09:58:54.037Z,99361.91
2022-10-17T10:01:36.215Z,99345.09
2022-10-17T10:04:18.004Z,99359.38
2022-10-17T10:07:17.827Z,99360.41
2022-10-17T10:09:56.549Z,99357.63
2022-10-17T10:12:39.536Z,99354.09
2022-10-17T10:15:44.158Z,99364.53
2022-10-17T10:18:35.759Z,99358.00
2022-10-17T10:21:29.559Z,99361.06
2022-10-17T10:24:15.721Z,99369.50
2022-10-17T10:26:54.324Z,99375.22
2022-10-17T10:29:39.855Z,99362.72
2022-10-17T10:32:22.839Z,99371.69
2022-10-17T10:35:07.471Z,99378.47
2022-10-17T10:37:45.696Z,99385.84
2022-10-17T10:40:37.376Z,99382.94
2022-10-17T10:43:06.550Z,99383.66
2022-10-17T10:45:48.039Z,99389.28
2022-10-17T10:48:35.707Z,99383.81
2022-10-17T10:51:17.391Z,99366.81
2022-10-17T10:54:16.145Z,99390.38
2022-10-17T10:57:07.797Z,99395.47
2022-10-17T10:59:59.183Z,99395.38
2022-10-17T11:03:16.361Z,99396.50
2022-10-17T11:06:00.566Z,99391.66
2022-10-17T11:08:50.409Z,99403.13
2022-10-17T11:11:48.042Z,99391.69
2022-10-17T11:14:49.624Z,99389.28
2022-10-17T11:17:55.223Z,99392.94
2022-10-17T11:21:05.995Z,99383.91
2022-10-17T11:24:06.860Z,99383.34
2022-10-17T11:26:50.634Z,99381.34
2022-10-17T11:29:18.848Z,99389.53
2022-10-17T11:31:54.857Z,99377.56
2022-10-17T11:34:33.465Z,99377.69
2022-10-17T11:37:31.833Z,99377.88
2022-10-17T11:40:38.971Z,99367.13
2022-10-17T11:43:28.079Z,99382.63
2022-10-17T11:46:20.019Z,99384.06
2022-10-17T11:49:20.611Z,99374.59
2022-10-17T11:52:55.813Z,99374.69
2022-10-17T11:55:29.772Z,99368.25
2022-10-17T11:58:31.727Z,99378.78
2022-10-17T12:01:54.780Z,99377.25
2022-10-17T12:05:12.689Z,99375.81
2022-10-17T12:08:14.216Z,99374.59
2022-10-17T12:11:38.677Z,99384.44
2022-10-17T12:14:48.503Z,99373.03
2022-10-17T12:17:40.747Z,99372.00
2022-10-17T12:20:26.140Z,99373.31
2022-10-17T12:23:12.475Z,99374.59
2022-10-17T12:26:06.435Z,99375.53
2022-10-17T12:28:48.129Z,99373.53
2022-10-17T12:31:29.652Z,99377.38
2022-10-17T12:34:03.959Z,99365.31
2022-10-17T12:36:31.029Z,99366.66
2022-10-17T12:39:04.337Z,99359.28
2022-10-17T12:41:40.603Z,99366.28
2022-10-17T12:44:14.082Z,99352.06
2022-10-17T12:47:10.812Z,99366.09
2022-10-17T12:49:56.860Z,99362.03
2022-10-17T12:52:35.039Z,99355.47
2022-10-17T12:55:14.931Z,99353.16
2022-10-17T12:58:08.335Z,99355.28
2022-10-17T13:01:18.992Z,99344.47
2022-10-17T13:03:52.441Z,99334.22
2022-10-17T13:06:31.154Z,99340.53
2022-10-17T13:09:38.770Z,99349.91
2022-10-17T13:12:20.056Z,99330.09
2022-10-17T13:14:50.211Z,99342.47
2022-10-17T13:17:30.783Z,99322.84
2022-10-17T13:19:58.985Z,99344.66
2022-10-17T13:22:32.768Z,99337.56
2022-10-17T13:25:30.059Z,99339.41
2022-10-17T13:28:13.663Z,99322.72
2022-10-17T13:30:49.611Z,99315.28
2022-10-17T13:33:36.338Z,99325.84
2022-10-17T13:36:13.720Z,99332.56
2022-10-17T13:38:42.699Z,99320.72
2022-10-17T13:41:34.862Z,99320.44
2022-10-17T13:44:15.469Z,99311.78
2022-10-17T13:46:44.683Z,99320.41
2022-10-17T13:49:42.246Z,99310.97
2022-10-17T13:52:23.452Z,99313.25
2022-10-17T13:54:53.695Z,99310.97
2022-10-17T13:57:31.878Z,99325.94
2022-10-17T14:00:23.153Z,99314.59
2022-10-17T14:02:50.618Z,99313.81
2022-10-17T14:05:23.353Z,99307.31
2022-10-17T14:08:21.687Z,99307.25
2022-10-17T14:10:49.192Z,99305.28
2022-10-17T14:13:33.740Z,99319.56
2022-10-17T14:16:04.557Z,99311.00
2022-10-17T14:18:36.948Z,99316.28
2022-10-17T14:24:35.126Z,99309.41
2022-10-17T14:27:02.665Z,99305.84
2022-10-17T14:29:51.786Z,99303.16
2022-10-17T14:32:21.098Z,99305.81
2022-10-17T14:35:05.632Z,99306.38
2022-10-17T14:37:49.740Z,99312.13
2022-10-17T14:40:27.320Z,99316.59
2022-10-17T14:43:00.123Z,99311.00
2022-10-17T14:45:39.931Z,99316.78
2022-10-17T14:48:19.732Z,99293.50
2022-10-17T14:51:18.633Z,99316.59
2022-10-17T14:54:29.761Z,99310.00
2022-10-17T14:56:57.049Z,99305.41
2022-10-17T14:59:52.306Z,99311.94
2022-10-17T15:02:14.154Z,99301.91
2022-10-17T15:04:42.269Z,99299.75
2022-10-17T15:07:18.026Z,99314.41
2022-10-17T15:09:52.654Z,99307.69
2022-10-17T15:12:26.125Z,99309.31
2022-10-17T15:14:54.382Z,99316.00
2022-10-17T15:17:32.345Z,99309.72
2022-10-17T15:20:00.255Z,99324.81
2022-10-17T15:22:27.882Z,99327.91
2022-10-17T15:24:55.506Z,99321.03
2022-10-17T15:27:26.467Z,99315.03
2022-10-17T15:29:53.743Z,99322.25
2022-10-17T15:32:21.026Z,99329.59
2022-10-17T15:34:48.307Z,99324.19
2022-10-17T15:37:26.284Z,99324.81
2022-10-17T15:39:55.579Z,99320.59
2022-10-17T15:42:29.832Z,99326.38
2022-10-17T15:44:58.432Z,99326.31
2022-10-17T15:47:34.004Z,99324.81
2022-10-17T15:50:02.552Z,99328.06
2022-10-17T15:52:29.855Z,99329.75
2022-10-17T15:55:04.160Z,99329.06
2022-10-17T15:57:40.411Z,99335.41
2022-10-17T16:00:25.160Z,99329.84
2022-10-17T16:02:52.489Z,99326.03
2022-10-17T16:05:26.912Z,99328.13
2022-10-17T16:07:55.786Z,99326.28
2022-10-17T16:10:23.785Z,99326.72
2022-10-17T16:12:53.040Z,99330.59
2022-10-17T16:15:27.888Z,99328.66
2022-10-17T16:18:00.455Z,99334.97
2022-10-17T16:20:30.375Z,99329.78
2022-10-17T16:23:00.532Z,99334.81
2022-10-17T16:25:31.854Z,99334.72
2022-10-17T16:28:00.810Z,99341.22
2022-10-17T16:30:31.838Z,99344.50
2022-10-17T16:32:59.350Z,99346.75
2022-10-17T16:35:34.761Z,99348.16
2022-10-17T16:38:07.856Z,99346.47
2022-10-17T16:40:37.794Z,99352.00
2022-10-17T16:43:05.382Z,99356.59
2022-10-17T16:45:32.763Z,99359.41
2022-10-17T16:48:00.081Z,99362.13
2022-10-17T16:50:27.451Z,99354.56
2022-10-17T16:52:54.709Z,99367.75
2022-10-17T16:55:22.013Z,99368.09
2022-10-17T16:57:49.533Z,99372.97
2022-10-17T17:00:18.005Z,99376.47
2022-10-17T17:02:48.192Z,99385.59
2022-10-17T17:05:16.102Z,99388.94
2022-10-17T17:07:43.508Z,99391.44
2022-10-17T17:10:10.861Z,99395.41
2022-10-17T17:12:38.191Z,99398.69
2022-10-17T17:15:09.623Z,99405.69
2022-10-17T17:17:49.654Z,99404.59
2022-10-17T17:20:18.632Z,99414.72
2022-10-17T17:22:45.901Z,99403.56
2022-10-17T17:25:13.219Z,99417.16
2022-10-17T17:27:40.472Z,99414.00
2022-10-17T17:30:08.735Z,99415.22
2022-10-17T17:32:36.032Z,99424.09
2022-10-17T17:35:03.417Z,99424.41
2022-10-17T17:37:31.030Z,99428.00
2022-10-17T17:39:58.453Z,99440.34
2022-10-17T17:42:25.719Z,99429.34
2022-10-17T17:44:52.993Z,99430.03
2022-10-17T17:47:20.415Z,99431.16
2022-10-17T17:49:47.709Z,99433.91
2022-10-17T17:52:14.984Z,99430.41
2022-10-17T17:54:42.232Z,99437.81
2022-10-17T17:57:09.510Z,99433.03
2022-10-17T17:59:39.574Z,99432.34
2022-10-17T18:02:08.766Z,99434.00
2022-10-17T18:04:36.087Z,99445.19
2022-10-17T18:07:03.365Z,99442.56
2022-10-17T18:09:30.624Z,99444.91
2022-10-17T18:11:57.883Z,99450.00
2022-10-17T18:14:25.575Z,99448.47
2022-10-17T18:16:53.871Z,99449.44
2022-10-17T18:19:22.265Z,99456.09
2022-10-17T18:21:49.648Z,99458.91
2022-10-17T18:24:16.997Z,99455.75
2022-10-17T18:26:44.253Z,99458.97
2022-10-17T18:29:12.787Z,99457.81
2022-10-17T18:31:40.085Z,99456.69
2022-10-17T18:34:07.351Z,99454.28
2022-10-17T18:36:37.158Z,99463.50
2022-10-17T18:39:05.683Z,99454.25
2022-10-17T18:41:33.856Z,99459.03
2022-10-17T18:44:03.061Z,99455.63
2022-10-17T18:46:40.058Z,99457.16
2022-10-17T18:49:16.562Z,99465.19
2022-10-17T18:51:43.812Z,99460.47
2022-10-17T18:54:24.525Z,99464.75
2022-10-17T18:56:55.295Z,99464.91
2022-10-17T18:59:22.835Z,99473.34
2022-10-17T19:01:51.696Z,99469.72
2022-10-17T19:04:19.135Z,99472.06
2022-10-17T19:06:46.445Z,99465.78
2022-10-17T19:09:17.112Z,99459.75
2022-10-17T19:11:44.412Z,99473.09
2022-10-17T19:14:13.745Z,99471.88
2022-10-17T19:16:50.869Z,99466.28
2022-10-17T19:19:26.021Z,99463.53
2022-10-17T19:21:54.118Z,99475.09
2022-10-17T19:24:26.140Z,99467.88
2022-10-17T19:26:57.897Z,99469.91
2022-10-17T19:29:28.795Z,99475.56
2022-10-17T19:34:43.695Z,99474.38
2022-10-17T19:37:10.973Z,99477.97
2022-10-17T19:39:38.520Z,99464.38
2022-10-17T19:42:06.955Z,99474.78
2022-10-17T19:44:35.497Z,99477.59
2022-10-17T19:47:02.761Z,99483.56
2022-10-17T19:49:30.097Z,99469.97
2022-10-17T19:51:57.419Z,99479.59
2022-10-17T19:54:24.671Z,99475.59
2022-10-17T19:56:51.939Z,99486.78
2022-10-17T19:59:19.531Z,99489.97
2022-10-17T20:01:47.093Z,99484.41
2022-10-17T20:04:16.180Z,99479.59
2022-10-17T20:06:43.640Z,99482.00
2022-10-17T20:09:15.826Z,99479.59
2022-10-17T20:11:45.094Z,99485.16
2022-10-17T20:14:15.445Z,99493.53
2022-10-17T20:16:44.792Z,99493.97
2022-10-17T20:19:16.336Z,99490.75
2022-10-17T20:21:44.420Z,99494.75
2022-10-17T20:24:16.487Z,99492.34
2022-10-17T20:26:44.983Z,99502.75
2022-10-17T20:29:21.238Z,99500.75
2022-10-17T20:31:49.513Z,99502.34
2022-10-17T20:34:19.692Z,99501.50
2022-10-17T20:36:48.625Z,99502.72
2022-10-17T20:39:20.012Z,99518.31
2022-10-17T20:41:47.721Z,99520.28
2022-10-17T20:44:15.267Z,99519.09
2022-10-17T20:46:48.687Z,99519.53
2022-10-17T20:49:25.408Z,99520.28
2022-10-17T20:51:52.697Z,99524.28
2022-10-17T20:54:22.197Z,99528.25
2022-10-17T20:56:49.515Z,99524.28
2022-10-17T20:59:18.178Z,99524.25
2022-10-17T21:01:46.929Z,99527.81
2022-10-17T21:04:44.768Z,99525.03
2022-10-17T21:07:02.298Z,99525.81
2022-10-17T21:09:29.616Z,99532.97
2022-10-17T21:11:57.362Z,99529.41
2022-10-17T21:14:25.815Z,99524.97
2022-10-17T21:16:53.543Z,99529.00
2022-10-17T21:19:21.863Z,99520.97
2022-10-17T21:21:50.549Z,99526.47
2022-10-17T21:24:20.474Z,99522.19
2022-10-17T21:26:55.201Z,99524.97
2022-10-17T21:29:24.154Z,99528.19
2022-10-17T21:31:52.685Z,99521.41
2022-10-17T21:34:27.242Z,99517.72
2022-10-17T21:36:54.569Z,99518.47
2022-10-17T21:39:24.727Z,99507.41
2022-10-17T21:41:54.443Z,99508.13
2022-10-17T21:44:27.381Z,99515.31
2022-10-17T21:46:56.052Z,99509.69
2022-10-17T21:49:25.762Z,99506.44
2022-10-17T21:51:54.075Z,99517.72
2022-10-17T21:54:23.570Z,99508.53
2022-10-17T21:56:52.050Z,99504.22
2022-10-17T21:59:19.337Z,99500.13
2022-10-17T22:01:46.900Z,99501.72
2022-10-17T22:04:18.847Z,99501.31
2022-10-17T22:06:51.892Z,99499.28
2022-10-17T22:09:25.765Z,99509.66
2022-10-17T22:11:56.803Z,99493.69
2022-10-17T22:14:27.911Z,99496.06
2022-10-17T22:16:55.729Z,99488.06
2022-10-17T22:19:27.737Z,99488.09
2022-10-17T22:21:57.092Z,99489.22
2022-10-17T22:24:24.440Z,99498.13
2022-10-17T22:26:51.991Z,99502.34
2022-10-17T22:29:19.559Z,99490.06
2022-10-17T22:31:47.145Z,99491.25
2022-10-17T22:34:17.662Z,99476.44
2022-10-17T22:36:47.645Z,99478.44
2022-10-17T22:39:15.053Z,99486.88
2022-10-17T22:41:42.327Z,99487.31
2022-10-17T22:44:09.806Z,99500.88
2022-10-17T22:46:37.297Z,99490.13
2022-10-17T22:49:04.698Z,99493.72
2022-10-17T22:51:32.908Z,99485.75
2022-10-17T22:54:00.161Z,99477.69
2022-10-17T22:56:27.573Z,99483.25
2022-10-17T22:58:54.889Z,99489.66
2022-10-17T23:01:25.478Z,99484.50
2022-10-17T23:03:53.978Z,99477.25
2022-10-17T23:06:23.801Z,99472.03
2022-10-17T23:08:51.189Z,99469.72
2022-10-17T23:11:18.843Z,99485.63
2022-10-17T23:13:46.139Z,99483.19
2022-10-17T23:16:13.523Z,99476.31
2022-10-17T23:18:40.948Z,99487.94
2022-10-17T23:21:08.724Z,99476.44
2022-10-17T23:23:37.024Z,99478.31
2022-10-17T23:26:14.944Z,99466.44
2022-10-17T23:28:43.514Z,99477.53
2022-10-17T23:31:19.826Z,99474.34
2022-10-17T23:33:49.781Z,99466.00
2022-10-17T23:36:20.767Z,99464.00
2022-10-17T23:38:49.131Z,99472.34
2022-10-17T23:41:17.159Z,99472.34
2022-10-17T23:43:45.016Z,99476.75
2022-10-17T23:46:12.613Z,99482.34
2022-10-17T23:48:40.810Z,99472.66
2022-10-17T23:51:10.384Z,99478.97
2022-10-17T23:53:39.714Z,99478.16
2022-10-17T23:56:09.385Z,99482.06
2022-10-17T23:58:38.726Z,99481.50
